Time;durP1;ratioP1;P1;durP2;ratioP2;P2;SDS_P1;SDS_P2;PMS_P1;PMS_P2;Temp;Humidity;BMP_temperature;BMP_pressure;BME280_temperature;BME280_humidity;BME280_pressure;Samples;Min_cycle;Max_cycle;Signal;HPM_P1;HPM_P2
2023/08/31 00:01:03;;;;;;;;;17.80;17.00;;;;;20.86;100.00;97878.31;6287636;27;96957;-64
2023/08/31 00:04:14;;;;;;;;;17.60;16.60;;;;;20.90;100.00;97877.38;6287442;27;97071;-65
2023/08/31 00:07:18;;;;;;;;;15.60;15.00;;;;;20.92;100.00;97877.03;6287543;27;96288;-65
2023/08/31 00:10:21;;;;;;;;;21.33;19.33;;;;;20.95;100.00;97884.66;6268260;27;98469;-64
2023/08/31 00:13:26;;;;;;;;;16.00;15.00;;;;;20.92;100.00;97879.78;6289711;27;96386;-65
2023/08/31 00:16:33;;;;;;;;;19.00;16.60;;;;;20.85;100.00;97890.41;6271340;27;98483;-64
2023/08/31 00:19:37;;;;;;;;;16.00;16.00;;;;;20.81;100.00;97889.41;6273283;27;96278;-65
2023/08/31 00:22:40;;;;;;;;;16.60;14.00;;;;;20.75;100.00;97891.47;6272198;27;96797;-64
2023/08/31 00:25:44;;;;;;;;;16.00;14.60;;;;;20.82;100.00;97885.56;6291261;27;96357;-65
2023/08/31 00:28:47;;;;;;;;;17.00;15.60;;;;;20.84;100.00;97889.59;6272067;27;96692;-65
2023/08/31 00:31:53;;;;;;;;;19.00;16.00;;;;;20.77;100.00;97893.91;6254925;27;98028;-64
2023/08/31 00:34:57;;;;;;;;;18.00;16.20;;;;;20.82;100.00;97899.25;6273107;27;96835;-65
2023/08/31 00:38:01;;;;;;;;;16.00;16.00;;;;;20.79;100.00;97902.59;6291137;27;96394;-65
2023/08/31 00:41:05;;;;;;;;;19.60;17.60;;;;;20.77;100.00;97898.22;6273265;27;96342;-65
2023/08/31 00:44:08;;;;;;;;;15.25;15.25;;;;;20.81;100.00;97901.19;6252629;27;98553;-64
2023/08/31 00:47:11;;;;;;;;;18.40;16.40;;;;;20.86;100.00;97897.50;6288960;27;96444;-65
2023/08/31 00:50:16;;;;;;;;;18.40;16.00;;;;;20.88;100.00;97900.72;6290205;27;96323;-65
2023/08/31 00:53:19;;;;;;;;;18.00;17.00;;;;;20.90;100.00;97899.31;6269121;27;97645;-64
2023/08/31 00:56:23;;;;;;;;;19.40;16.00;;;;;20.89;100.00;97899.59;6272429;27;96428;-64
2023/08/31 00:59:26;;;;;;;;;18.50;17.00;;;;;20.84;100.00;97900.53;6271720;27;96740;-64
2023/08/31 01:02:36;;;;;;;;;16.40;15.00;;;;;20.80;100.00;97888.59;6290392;27;96644;-64
2023/08/31 01:06:00;;;;;;;;;16.00;14.60;;;;;20.76;100.00;97890.34;6271563;27;97767;-64
2023/08/31 01:09:16;;;;;;;;;18.75;17.25;;;;;20.60;100.00;97894.56;6269599;27;98681;-65
2023/08/31 01:12:29;;;;;;;;;20.00;17.00;;;;;20.58;100.00;97894.06;6288498;27;96514;-64
2023/08/31 01:15:34;;;;;;;;;20.00;17.60;;;;;20.58;100.00;97894.06;6287745;27;96801;-65
2023/08/31 01:18:41;;;;;;;;;16.75;15.75;;;;;20.59;100.00;97887.47;6267515;27;96512;-65
2023/08/31 01:21:48;;;;;;;;;19.00;17.00;;;;;20.54;100.00;97885.66;6288132;27;96428;-64
2023/08/31 01:24:55;;;;;;;;;19.25;18.00;;;;;20.54;100.00;97885.66;6269133;27;96599;-64
2023/08/31 01:28:00;;;;;;;;;19.60;17.00;;;;;20.57;100.00;97887.78;6253490;27;98440;-65
2023/08/31 01:31:05;;;;;;;;;16.00;14.50;;;;;20.63;100.00;97885.72;6263880;27;96361;-65
2023/08/31 01:34:08;;;;;;;;;20.00;18.00;;;;;20.62;100.00;97887.66;6257501;27;97468;-65
2023/08/31 01:37:21;;;;;;;;;17.40;16.00;;;;;20.63;100.00;97891.19;6271510;27;96691;-64
2023/08/31 01:40:33;;;;;;;;;17.75;15.75;;;;;20.56;100.00;97883.44;6270874;27;96364;-65
2023/08/31 01:43:37;;;;;;;;;16.80;15.20;;;;;20.62;100.00;97890.38;6272225;27;96420;-64
2023/08/31 01:46:42;;;;;;;;;16.00;15.00;;;;;20.61;100.00;97902.47;6271538;27;96334;-64
2023/08/31 01:49:45;;;;;;;;;18.00;17.00;;;;;20.56;100.00;97905.34;6270924;27;96374;-65
2023/08/31 01:52:48;;;;;;;;;19.80;17.60;;;;;20.54;100.00;97902.09;6289832;27;97050;-65
2023/08/31 01:55:53;;;;;;;;;20.50;18.00;;;;;20.49;100.00;97907.69;6249792;27;96859;-64
2023/08/31 01:58:57;;;;;;;;;16.25;15.00;;;;;20.47;100.00;97914.59;6271477;27;96388;-65
2023/08/31 02:02:00;;;;;;;;;16.00;15.00;;;;;20.47;100.00;97912.69;6245163;27;98657;-65
2023/08/31 02:05:04;;;;;;;;;17.60;15.00;;;;;20.41;100.00;97910.34;6252139;27;96689;-65
2023/08/31 02:08:07;;;;;;;;;14.20;14.00;;;;;20.33;100.00;97898.19;6289835;27;96319;-65
2023/08/31 02:11:12;;;;;;;;;17.00;15.00;;;;;20.23;100.00;97907.41;6245500;27;96506;-64
2023/08/31 02:14:15;;;;;;;;;17.00;16.00;;;;;20.25;100.00;97912.59;6262956;27;97764;-65
2023/08/31 02:17:18;;;;;;;;;18.80;17.20;;;;;20.24;100.00;97919.19;6262251;27;98787;-64
2023/08/31 02:20:21;;;;;;;;;17.80;16.80;;;;;20.21;100.00;97917.06;6251564;27;98453;-65
2023/08/31 02:23:24;;;;;;;;;20.40;17.20;;;;;20.17;100.00;97922.34;6269545;27;96670;-65
2023/08/31 02:26:29;;;;;;;;;18.00;17.00;;;;;20.21;100.00;97919.81;6287224;27;96828;-65
2023/08/31 02:29:32;;;;;;;;;21.40;18.40;;;;;20.21;100.00;97933.50;6270380;27;96838;-65
2023/08/31 02:32:36;;;;;;;;;17.20;16.20;;;;;20.19;100.00;97932.97;6287373;27;96422;-65
2023/08/31 02:35:39;;;;;;;;;17.25;17.00;;;;;20.22;100.00;97933.19;6289033;27;96457;-65
2023/08/31 02:38:42;;;;;;;;;17.00;17.00;;;;;20.19;100.00;97936.53;6269639;27;96844;-64
2023/08/31 02:41:46;;;;;;;;;20.00;19.00;;;;;20.19;100.00;97935.72;6286400;27;96632;-65
2023/08/31 02:44:53;;;;;;;;;21.25;17.75;;;;;20.18;100.00;97936.84;6286825;27;97212;-64
2023/08/31 02:47:57;;;;;;;;;22.60;16.60;;;;;20.23;100.00;97936.75;6289516;27;96456;-64
2023/08/31 02:51:02;;;;;;;;;22.80;19.40;;;;;20.15;100.00;97934.72;6269267;27;97680;-65
2023/08/31 02:54:05;;;;;;;;;20.00;17.00;;;;;20.14;100.00;97933.09;6269326;27;96388;-65
2023/08/31 02:57:10;;;;;;;;;22.20;20.20;;;;;20.10;100.00;97940.28;6244058;27;98534;-64
2023/08/31 03:00:14;;;;;;;;;20.40;18.40;;;;;20.14;100.00;97931.16;6262132;27;96352;-64
2023/08/31 03:03:18;;;;;;;;;21.00;19.00;;;;;20.09;100.00;97925.78;6269409;27;96349;-65
2023/08/31 03:06:22;;;;;;;;;22.00;19.00;;;;;20.17;100.00;97927.81;6252532;27;96735;-65
2023/08/31 03:09:25;;;;;;;;;18.80;17.80;;;;;20.19;100.00;97930.22;6288040;27;96388;-65
2023/08/31 03:12:29;;;;;;;;;18.75;17.75;;;;;20.24;100.00;97930.94;6267170;27;96387;-64
2023/08/31 03:15:34;;;;;;;;;20.40;17.40;;;;;20.24;100.00;97927.38;6259335;27;96711;-65
2023/08/31 03:18:37;;;;;;;;;20.00;20.00;;;;;20.29;100.00;97924.53;6269887;27;96359;-65
2023/08/31 03:21:41;;;;;;;;;20.20;18.00;;;;;20.32;100.00;97926.72;6269483;27;96479;-65
2023/08/31 03:24:44;;;;;;;;;18.00;17.00;;;;;20.35;100.00;97931.56;6266581;27;98519;-65
2023/08/31 03:27:49;;;;;;;;;19.20;17.00;;;;;20.38;100.00;97938.38;6284104;27;96317;-65
2023/08/31 03:30:56;;;;;;;;;15.60;14.00;;;;;20.37;100.00;97943.03;6267186;27;96544;-65
2023/08/31 03:33:59;;;;;;;;;17.60;16.60;;;;;20.37;100.00;97947.69;6284359;27;96378;-65
2023/08/31 03:37:02;;;;;;;;;19.00;16.40;;;;;20.40;100.00;97936.91;6267046;27;97962;-65
2023/08/31 03:40:09;;;;;;;;;18.60;17.00;;;;;20.48;100.00;97935.38;6267622;27;96243;-65
2023/08/31 03:43:13;;;;;;;;;18.00;16.00;;;;;20.49;100.00;97939.72;6267592;27;96554;-65
2023/08/31 03:46:17;;;;;;;;;21.50;19.00;;;;;20.50;100.00;97935.88;6259700;27;96558;-65
2023/08/31 03:49:21;;;;;;;;;20.00;18.00;;;;;20.48;100.00;97944.38;6264799;27;96539;-64
2023/08/31 03:52:24;;;;;;;;;20.60;16.80;;;;;20.39;100.00;97954.47;6265469;27;96445;-64
2023/08/31 03:55:27;;;;;;;;;21.00;18.00;;;;;20.38;100.00;97954.78;6249514;27;96397;-64
2023/08/31 03:58:33;;;;;;;;;20.80;17.80;;;;;20.44;100.00;97959.00;6290411;27;96512;-65
2023/08/31 04:01:36;;;;;;;;;18.00;16.40;;;;;20.47;100.00;97967.44;6249088;27;96601;-65
2023/08/31 04:04:40;;;;;;;;;18.80;17.00;;;;;20.42;100.00;97973.03;6270256;27;96924;-64
2023/08/31 04:07:43;;;;;;;;;18.80;17.00;;;;;20.40;100.00;97979.91;6249684;27;97264;-65
2023/08/31 04:10:46;;;;;;;;;18.00;14.80;;;;;20.29;100.00;97979.28;6265999;27;96492;-65
2023/08/31 04:13:51;;;;;;;;;19.00;16.60;;;;;20.32;100.00;97970.50;6264893;27;96908;-65
2023/08/31 04:16:55;;;;;;;;;16.75;15.00;;;;;20.34;100.00;97973.72;6266324;27;96364;-65
2023/08/31 04:19:58;;;;;;;;;22.50;18.00;;;;;20.34;100.00;97971.00;6237397;27;99086;-65
2023/08/31 04:23:01;;;;;;;;;16.00;14.00;;;;;20.35;100.00;97977.28;6271762;27;96353;-65
2023/08/31 04:26:10;;;;;;;;;17.00;16.25;;;;;20.40;100.00;97972.50;6275311;27;96612;-64
2023/08/31 04:29:15;;;;;;;;;20.00;17.00;;;;;20.39;100.00;97979.09;6263192;27;96406;-65
2023/08/31 04:32:18;;;;;;;;;15.75;14.75;;;;;20.44;100.00;97991.84;6245994;27;96753;-64
2023/08/31 04:35:22;;;;;;;;;19.00;17.00;;;;;20.44;100.00;97987.19;6276047;27;96191;-64
2023/08/31 04:38:25;;;;;;;;;18.00;16.00;;;;;20.33;100.00;97974.06;6255479;27;96468;-65
2023/08/31 04:41:28;;;;;;;;;19.00;16.00;;;;;20.43;100.00;97977.34;6279024;27;96478;-65
2023/08/31 04:44:33;;;;;;;;;15.00;15.00;;;;;20.51;100.00;97984.88;6261627;27;96696;-64
2023/08/31 04:47:36;;;;;;;;;17.00;15.75;;;;;20.54;100.00;97984.22;6247192;27;96482;-65
2023/08/31 04:50:39;;;;;;;;;17.60;16.60;;;;;20.53;100.00;97992.75;6277638;27;96423;-64
2023/08/31 04:53:42;;;;;;;;;17.40;15.40;;;;;20.47;100.00;98003.03;6269607;27;97548;-64
2023/08/31 04:56:45;;;;;;;;;15.50;15.00;;;;;20.47;100.00;98005.75;6274835;27;96801;-65
2023/08/31 04:59:50;;;;;;;;;13.00;12.00;;;;;20.40;100.00;98004.53;6248875;27;96645;-65
2023/08/31 05:02:53;;;;;;;;;15.00;12.00;;;;;20.38;100.00;98004.06;6266483;27;97215;-64
2023/08/31 05:05:56;;;;;;;;;17.00;15.00;;;;;20.42;100.00;98008.63;6265086;27;99043;-64
2023/08/31 05:08:59;;;;;;;;;18.00;15.00;;;;;20.38;100.00;98012.28;6263853;27;96904;-65
2023/08/31 05:12:03;;;;;;;;;13.33;12.00;;;;;20.48;100.00;98010.09;6286907;27;96953;-65
2023/08/31 05:15:09;;;;;;;;;14.00;12.00;;;;;20.50;100.00;98024.31;6262248;27;96678;-64
2023/08/31 05:18:12;;;;;;;;;17.00;14.60;;;;;20.57;100.00;98021.16;6284886;27;96945;-65
2023/08/31 05:21:15;;;;;;;;;15.00;14.00;;;;;20.51;100.00;98014.97;6285836;27;96689;-64
2023/08/31 05:24:18;;;;;;;;;12.60;11.00;;;;;20.65;100.00;98017.69;6286163;27;96449;-64
2023/08/31 05:27:22;;;;;;;;;15.00;13.40;;;;;20.69;100.00;98024.97;6265684;27;96912;-65
2023/08/31 05:30:27;;;;;;;;;14.80;14.40;;;;;20.53;100.00;98012.72;6280588;27;96447;-65
2023/08/31 05:33:33;;;;;;;;;15.00;13.00;;;;;20.66;100.00;98025.59;6284269;27;96779;-64
2023/08/31 05:36:37;;;;;;;;;13.00;12.50;;;;;20.77;100.00;98039.06;6281244;27;96862;-65
2023/08/31 05:39:40;;;;;;;;;16.00;14.00;;;;;20.80;100.00;98043.91;6284795;27;96839;-65
2023/08/31 05:42:43;;;;;;;;;14.00;13.00;;;;;20.84;100.00;98048.47;6284571;27;96546;-65
2023/08/31 05:45:48;;;;;;;;;13.25;12.50;;;;;20.77;100.00;98025.38;6264715;27;96323;-64
2023/08/31 05:48:52;;;;;;;;;9.50;9.00;;;;;20.98;100.00;98041.03;6264504;27;96377;-65
2023/08/31 05:51:55;;;;;;;;;14.00;11.50;;;;;21.17;100.00;98035.41;6268476;27;97589;-64
2023/08/31 05:54:58;;;;;;;;;13.00;10.40;;;;;21.17;100.00;98054.56;6284362;27;96519;-65
2023/08/31 05:58:02;;;;;;;;;12.00;10.00;;;;;21.22;100.00;98042.69;6282916;27;96946;-65
2023/08/31 06:01:08;;;;;;;;;10.25;10.00;;;;;21.20;100.00;98058.66;6284592;27;97219;-64
2023/08/31 06:04:13;;;;;;;;;10.80;9.40;;;;;21.28;100.00;98053.22;6268706;27;98671;-65
2023/08/31 06:07:22;;;;;;;;;10.00;10.00;;;;;21.33;100.00;98055.84;6285598;27;96867;-65
2023/08/31 06:10:27;;;;;;;;;10.00;8.60;;;;;21.22;100.00;98054.47;6282966;27;97486;-65
2023/08/31 06:13:33;;;;;;;;;10.00;10.00;;;;;21.29;100.00;98054.84;6288066;27;96883;-64
2023/08/31 06:16:39;;;;;;;;;12.00;11.60;;;;;21.44;100.00;98053.66;6281800;27;96406;-65
2023/08/31 06:19:43;;;;;;;;;9.00;8.80;;;;;21.60;100.00;98057.63;6285909;27;97441;-66
2023/08/31 06:22:46;;;;;;;;;9.40;9.40;;;;;21.83;100.00;98061.97;6284730;27;96307;-65
2023/08/31 06:25:52;;;;;;;;;8.00;8.00;;;;;21.77;100.00;98060.47;6284923;27;96333;-65
2023/08/31 06:28:56;;;;;;;;;8.00;7.25;;;;;21.89;100.00;98068.91;6276450;27;96572;-65
2023/08/31 06:32:00;;;;;;;;;7.00;6.25;;;;;22.02;100.00;98078.22;6266976;27;98669;-65
2023/08/31 06:35:04;;;;;;;;;8.50;7.50;;;;;22.09;100.00;98088.78;6285551;27;96946;-65
2023/08/31 06:38:07;;;;;;;;;7.50;7.00;;;;;22.18;100.00;98081.38;6284515;27;96731;-65
2023/08/31 06:41:10;;;;;;;;;9.00;9.00;;;;;22.36;100.00;98081.13;6286234;27;96615;-65
2023/08/31 06:44:13;;;;;;;;;7.00;7.00;;;;;22.54;100.00;98090.22;6268780;27;96339;-65
2023/08/31 06:47:18;;;;;;;;;7.00;6.60;;;;;22.60;100.00;98091.69;6270344;27;96346;-65
2023/08/31 06:50:21;;;;;;;;;7.40;6.00;;;;;22.80;100.00;98104.88;6284295;27;96212;-65
2023/08/31 06:53:24;;;;;;;;;8.00;7.50;;;;;23.08;100.00;98105.41;6283769;27;96754;-65
2023/08/31 06:56:28;;;;;;;;;7.00;7.00;;;;;23.24;100.00;98106.56;6250620;27;96877;-65
2023/08/31 06:59:31;;;;;;;;;6.20;6.20;;;;;23.45;100.00;98116.94;6281097;27;96330;-64
2023/08/31 07:02:40;;;;;;;;;6.00;5.20;;;;;23.57;100.00;98114.31;6263819;27;96684;-65
2023/08/31 07:05:44;;;;;;;;;6.60;6.00;;;;;23.68;100.00;98126.63;6271298;27;96205;-66
2023/08/31 07:08:47;;;;;;;;;5.60;5.60;;;;;23.46;100.00;98141.34;6274986;27;96540;-65
2023/08/31 07:11:50;;;;;;;;;7.00;7.00;;;;;23.35;100.00;98142.78;6276659;27;96431;-66
2023/08/31 07:14:53;;;;;;;;;6.50;6.50;;;;;23.29;100.00;98150.38;6218298;27;97072;-65
2023/08/31 07:17:58;;;;;;;;;5.00;5.00;;;;;23.26;100.00;98144.72;6253335;27;96767;-65
2023/08/31 07:21:01;;;;;;;;;6.40;5.00;;;;;23.17;100.00;98158.44;6259461;27;96455;-65
2023/08/31 07:24:05;;;;;;;;;10.00;9.00;;;;;23.20;100.00;98155.09;6253093;27;97576;-64
2023/08/31 07:27:08;;;;;;;;;9.50;9.00;;;;;23.28;100.00;98159.78;6261944;27;96493;-65
2023/08/31 07:30:12;;;;;;;;;8.00;7.00;;;;;23.38;100.00;98166.91;6259269;27;96397;-65
2023/08/31 07:33:17;;;;;;;;;6.00;6.00;;;;;23.43;100.00;98168.69;6257015;27;97052;-64
2023/08/31 07:36:26;;;;;;;;;7.20;6.60;;;;;23.59;100.00;98175.34;6257917;27;96409;-65
2023/08/31 07:39:30;;;;;;;;;7.00;6.00;;;;;23.68;100.00;98176.97;6252171;27;96976;-65
2023/08/31 07:42:33;;;;;;;;;6.20;6.00;;;;;23.84;100.00;98176.47;6254759;27;98090;-66
2023/08/31 07:45:36;;;;;;;;;5.25;5.00;;;;;24.07;100.00;98181.47;6254896;27;96774;-65
2023/08/31 07:48:40;;;;;;;;;8.00;7.40;;;;;24.19;100.00;98182.78;6262205;27;97496;-65
2023/08/31 07:51:43;;;;;;;;;3.80;3.80;;;;;24.29;100.00;98182.44;6263085;27;96571;-66
2023/08/31 07:54:47;;;;;;;;;6.00;5.00;;;;;24.42;100.00;98196.00;6256613;27;97297;-65
2023/08/31 07:57:50;;;;;;;;;8.00;7.00;;;;;24.38;100.00;98195.03;6261788;27;96391;-65
2023/08/31 08:00:54;;;;;;;;;4.60;4.60;;;;;24.44;100.00;98190.16;6244737;27;96415;-65
2023/08/31 08:03:59;;;;;;;;;6.00;6.00;;;;;24.44;100.00;98187.38;6270153;27;98126;-64
2023/08/31 08:07:03;;;;;;;;;4.00;4.00;;;;;24.57;100.00;98205.69;6264377;27;96504;-65
2023/08/31 08:10:07;;;;;;;;;4.00;4.00;;;;;24.57;100.00;98200.16;6240796;27;96924;-65
2023/08/31 08:13:11;;;;;;;;;5.00;4.80;;;;;24.62;100.00;98196.41;6260041;27;96622;-65
2023/08/31 08:16:14;;;;;;;;;6.00;5.00;;;;;24.59;100.00;98203.38;6242259;27;98796;-65
2023/08/31 08:19:23;;;;;;;;;3.00;3.00;;;;;24.44;100.00;98190.94;6254435;27;96553;-65
2023/08/31 08:22:26;;;;;;;;;3.00;3.00;;;;;24.31;100.00;98208.50;6258005;27;97039;-66
2023/08/31 08:25:29;;;;;;;;;4.00;3.60;;;;;24.33;100.00;98208.19;6235675;27;96556;-64
2023/08/31 08:28:33;;;;;;;;;4.00;3.00;;;;;24.47;100.00;98219.81;6240512;27;97436;-63
2023/08/31 08:31:36;;;;;;;;;2.40;2.40;;;;;24.65;100.00;98224.13;6258798;27;96577;-64
2023/08/31 08:34:41;;;;;;;;;2.00;2.00;;;;;24.71;100.00;98222.00;6237113;27;96946;-65
2023/08/31 08:37:44;;;;;;;;;3.00;3.00;;;;;24.63;100.00;98228.38;6257444;27;97037;-63
2023/08/31 08:40:47;;;;;;;;;3.00;2.60;;;;;24.57;100.00;98231.28;6262656;27;97204;-63
2023/08/31 08:43:52;;;;;;;;;4.00;4.00;;;;;24.38;100.00;98224.53;6263573;27;96420;-63
2023/08/31 08:47:00;;;;;;;;;4.00;4.00;;;;;24.37;100.00;98234.75;6265656;27;96425;-63
2023/08/31 08:50:05;;;;;;;;;6.00;5.40;;;;;24.37;100.00;98245.78;6238909;27;98564;-63
2023/08/31 08:53:09;;;;;;;;;4.00;4.00;;;;;24.26;100.00;98243.66;6246409;27;97162;-63
2023/08/31 08:56:12;;;;;;;;;5.00;5.00;;;;;24.22;100.00;98242.72;6241317;27;98695;-63
2023/08/31 08:59:16;;;;;;;;;7.00;6.00;;;;;24.19;100.00;98240.63;6265535;27;96766;-64
2023/08/31 09:02:19;;;;;;;;;5.00;4.60;;;;;24.13;100.00;98239.94;6229182;27;96783;-63
2023/08/31 09:05:24;;;;;;;;;5.00;5.00;;;;;24.30;100.00;98236.38;6268906;27;96230;-63
2023/08/31 09:08:29;;;;;;;;;4.00;3.00;;;;;24.50;100.00;98243.94;6252381;27;96918;-64
2023/08/31 09:11:33;;;;;;;;;7.00;7.00;;;;;24.84;100.00;98238.31;6259096;27;97044;-63
2023/08/31 09:14:36;;;;;;;;;6.00;5.75;;;;;25.07;100.00;98240.88;6257622;27;98347;-63
2023/08/31 09:17:40;;;;;;;;;3.80;3.80;;;;;25.09;100.00;98249.59;6241094;27;96505;-63
2023/08/31 09:20:46;;;;;;;;;4.40;4.40;;;;;25.34;100.00;98235.66;6264134;27;98071;-63
2023/08/31 09:23:57;;;;;;;;;5.00;4.60;;;;;25.58;100.00;98248.03;6262250;27;96898;-63
2023/08/31 09:27:00;;;;;;;;;5.00;5.00;;;;;25.76;100.00;98257.81;6229130;27;97571;-63
2023/08/31 09:30:04;;;;;;;;;7.00;7.00;;;;;25.74;100.00;98255.41;6242242;27;96922;-63
2023/08/31 09:33:08;;;;;;;;;6.00;4.00;;;;;25.63;100.00;98256.94;6260542;27;96669;-63
2023/08/31 09:36:12;;;;;;;;;3.60;3.60;;;;;25.60;100.00;98259.56;6266352;27;96369;-64
2023/08/31 09:39:16;;;;;;;;;5.00;4.00;;;;;25.54;100.00;98261.69;6240790;27;96681;-64
2023/08/31 09:42:20;;;;;;;;;5.00;4.00;;;;;25.78;100.00;98261.88;6247883;27;96546;-64
2023/08/31 09:45:31;;;;;;;;;5.40;5.00;;;;;25.91;100.00;98268.25;6253498;27;96377;-63
2023/08/31 09:48:48;;;;;;;;;4.00;4.00;;;;;25.94;100.00;98264.03;6270937;27;96340;-64
2023/08/31 09:51:53;;;;;;;;;3.80;3.00;;;;;25.88;100.00;98277.22;6265959;27;96336;-63
2023/08/31 09:54:59;;;;;;;;;4.20;3.00;;;;;25.94;100.00;98277.84;6227431;27;96974;-63
2023/08/31 09:58:03;;;;;;;;;3.00;3.00;;;;;25.89;100.00;98270.56;6224387;27;97766;-64
2023/08/31 10:01:18;;;;;;;;;5.25;4.75;;;;;25.91;100.00;98282.06;6246601;27;98469;-65
2023/08/31 10:04:33;;;;;;;;;5.40;5.00;;;;;25.89;100.00;98276.09;6245588;27;96294;-63
2023/08/31 10:07:38;;;;;;;;;5.00;5.00;;;;;25.82;100.00;98284.09;6256331;27;96729;-64
2023/08/31 10:10:42;;;;;;;;;4.00;4.00;;;;;25.84;100.00;98281.81;6224958;27;96741;-64
2023/08/31 10:13:48;;;;;;;;;7.40;7.00;;;;;26.05;100.00;98287.31;6258198;27;96304;-63
2023/08/31 10:16:53;;;;;;;;;4.00;4.00;;;;;26.18;100.00;98286.25;6257321;27;96795;-63
2023/08/31 10:19:57;;;;;;;;;5.00;4.00;;;;;26.36;100.00;98279.44;6237062;27;96693;-63
2023/08/31 10:23:04;;;;;;;;;5.00;5.00;;;;;26.42;100.00;98283.63;6260345;27;96571;-62
2023/08/31 10:26:07;;;;;;;;;4.00;4.00;;;;;26.57;100.00;98288.50;6257889;27;96245;-63
2023/08/31 10:29:29;;;;;;;;;7.00;6.00;;;;;27.06;100.00;98286.69;6256529;27;97582;-63
2023/08/31 10:32:32;;;;;;;;;4.00;4.00;;;;;27.50;100.00;98287.75;6257304;27;96978;-63
2023/08/31 10:35:42;;;;;;;;;3.00;3.00;;;;;28.02;100.00;98295.28;6263277;27;96264;-63
2023/08/31 10:38:48;;;;;;;;;3.40;3.40;;;;;28.53;100.00;98290.06;6256448;27;96918;-64
2023/08/31 10:41:55;;;;;;;;;2.00;2.00;;;;;28.91;100.00;98297.84;6236803;27;98849;-65
2023/08/31 10:45:06;;;;;;;;;3.80;3.80;;;;;29.04;100.00;98294.63;6261233;27;96312;-63
2023/08/31 10:48:10;;;;;;;;;1.00;1.00;;;;;29.62;100.00;98298.47;6247938;27;96857;-63
2023/08/31 10:51:18;;;;;;;;;3.50;3.50;;;;;29.95;100.00;98295.28;6235908;27;98567;-63
2023/08/31 10:54:24;;;;;;;;;3.00;2.60;;;;;30.45;100.00;98288.78;6259604;27;96548;-63
2023/08/31 10:57:31;;;;;;;;;2.00;2.00;;;;;30.82;100.00;98293.91;6242662;27;96715;-63
2023/08/31 11:00:48;;;;;;;;;3.00;3.00;;;;;30.92;100.00;98282.16;6262415;27;96349;-64
2023/08/31 11:03:58;;;;;;;;;3.25;3.00;;;;;30.55;100.00;98299.34;6254839;27;96617;-64
2023/08/31 11:07:16;;;;;;;;;3.00;3.00;;;;;30.48;100.00;98301.19;6256316;27;97378;-64
2023/08/31 11:10:23;;;;;;;;;3.00;3.00;;;;;30.50;100.00;98305.22;6241215;27;96419;-63
2023/08/31 11:13:27;;;;;;;;;4.00;4.00;;;;;30.87;100.00;98305.53;6240879;27;96302;-63
2023/08/31 11:16:31;;;;;;;;;3.60;3.60;;;;;31.08;99.99;98302.38;6244570;27;96414;-64
2023/08/31 11:19:35;;;;;;;;;5.00;4.25;;;;;31.55;96.64;98301.16;6242948;27;96279;-63
2023/08/31 11:22:42;;;;;;;;;4.00;3.00;;;;;31.98;97.56;98292.25;6242693;27;96254;-63
2023/08/31 11:25:48;;;;;;;;;6.00;6.00;;;;;32.36;89.96;98290.38;6232400;27;96437;-64
2023/08/31 11:28:51;;;;;;;;;4.00;3.00;;;;;32.35;91.83;98297.16;6227528;27;96556;-64
2023/08/31 11:31:57;;;;;;;;;4.00;4.00;;;;;32.31;86.30;98290.72;6233995;27;96229;-64
2023/08/31 11:35:02;;;;;;;;;3.00;3.00;;;;;32.34;87.23;98296.34;6245620;27;96844;-64
2023/08/31 11:38:06;;;;;;;;;3.80;3.80;;;;;32.19;87.52;98284.22;6209487;27;97014;-63
2023/08/31 11:41:11;;;;;;;;;5.60;5.60;;;;;32.19;89.58;98298.16;6229329;28;96600;-63
2023/08/31 11:44:16;;;;;;;;;5.40;5.40;;;;;32.03;86.03;98291.13;6250889;27;96401;-63
2023/08/31 11:47:20;;;;;;;;;3.00;3.00;;;;;31.79;86.65;98292.38;6231331;27;98459;-63
2023/08/31 11:50:25;;;;;;;;;4.00;4.00;;;;;31.52;86.23;98299.13;6262746;27;96369;-63
2023/08/31 11:53:29;;;;;;;;;5.00;5.00;;;;;31.28;89.88;98291.94;6261931;27;96583;-63
2023/08/31 11:56:46;;;;;;;;;3.00;3.00;;;;;31.50;93.78;98298.69;6227675;27;96394;-63
2023/08/31 11:59:52;;;;;;;;;5.00;4.00;;;;;31.90;94.09;98281.41;6242620;27;96859;-63
2023/08/31 12:02:57;;;;;;;;;4.00;4.00;;;;;32.00;85.40;98289.09;6262213;27;97644;-63
2023/08/31 12:06:03;;;;;;;;;4.00;3.80;;;;;31.92;82.05;98281.81;6244155;27;96670;-63
2023/08/31 12:09:07;;;;;;;;;4.60;4.00;;;;;31.68;83.61;98289.44;6264400;27;96341;-63
2023/08/31 12:12:14;;;;;;;;;5.00;4.50;;;;;31.47;80.09;98272.38;6243841;27;96352;-63
2023/08/31 12:15:18;;;;;;;;;5.00;5.00;;;;;31.49;86.46;98288.72;6255864;27;96969;-64
2023/08/31 12:18:21;;;;;;;;;5.00;4.60;;;;;31.62;83.90;98274.22;6249565;27;96527;-64
2023/08/31 12:21:25;;;;;;;;;6.00;6.00;;;;;31.77;85.82;98273.25;6253484;27;96278;-64
2023/08/31 12:24:28;;;;;;;;;4.00;4.00;;;;;32.26;84.39;98269.53;6265923;27;96578;-64
2023/08/31 12:27:33;;;;;;;;;6.00;5.00;;;;;32.10;81.17;98280.09;6214535;28;97263;-64
2023/08/31 12:30:36;;;;;;;;;5.00;5.00;;;;;31.79;79.90;98276.47;6249554;27;97540;-63
2023/08/31 12:33:39;;;;;;;;;6.00;5.00;;;;;31.76;80.14;98271.66;6248941;27;96433;-64
2023/08/31 12:36:42;;;;;;;;;4.67;4.00;;;;;31.54;81.44;98269.69;6229678;27;98478;-63
2023/08/31 12:39:45;;;;;;;;;3.00;3.00;;;;;31.36;85.45;98271.41;6244398;27;98457;-63
2023/08/31 12:42:50;;;;;;;;;6.00;6.00;;;;;31.10;84.09;98265.78;6261089;27;96467;-64
2023/08/31 12:45:53;;;;;;;;;5.00;5.00;;;;;31.06;86.32;98256.56;6259072;27;96239;-62
2023/08/31 12:48:57;;;;;;;;;3.75;3.75;;;;;31.03;85.24;98258.13;6239523;27;98370;-63
2023/08/31 12:52:00;;;;;;;;;6.00;6.00;;;;;31.14;86.45;98258.28;6263000;27;97439;-64
2023/08/31 12:55:04;;;;;;;;;5.40;5.40;;;;;30.75;84.28;98258.38;6244673;27;96272;-63
2023/08/31 12:58:09;;;;;;;;;4.00;4.00;;;;;30.82;85.02;98261.31;6222132;27;99621;-64
2023/08/31 13:01:12;;;;;;;;;6.00;6.00;;;;;30.80;79.44;98255.31;6249893;27;96277;-64
2023/08/31 13:04:15;;;;;;;;;6.50;6.00;;;;;31.04;80.66;98259.72;6256101;27;97111;-64
2023/08/31 13:07:18;;;;;;;;;7.00;6.80;;;;;30.93;76.63;98258.72;6271992;27;96812;-63
2023/08/31 13:10:21;;;;;;;;;8.00;8.00;;;;;31.10;80.25;98257.44;6270871;27;98611;-63
2023/08/31 13:13:26;;;;;;;;;9.00;9.00;;;;;30.87;74.27;98266.56;6283677;27;97233;-63
2023/08/31 13:16:30;;;;;;;;;8.00;8.00;;;;;30.64;73.64;98265.75;6290594;27;96464;-63
2023/08/31 13:19:33;;;;;;;;;8.00;7.00;;;;;30.81;74.30;98256.91;6271075;27;98634;-63
2023/08/31 13:22:37;;;;;;;;;6.00;6.00;;;;;31.05;74.70;98255.78;6265565;27;99482;-63
2023/08/31 13:25:40;;;;;;;;;7.00;6.00;;;;;31.22;74.99;98248.91;6259960;27;97396;-64
2023/08/31 13:28:45;;;;;;;;;8.40;8.00;;;;;31.35;74.16;98259.47;6267503;27;98523;-64
2023/08/31 13:31:51;;;;;;;;;7.00;7.00;;;;;31.18;74.46;98225.75;6285609;27;97034;-64
2023/08/31 13:34:55;;;;;;;;;8.00;8.00;;;;;31.43;71.62;98246.44;6281314;27;96824;-63
2023/08/31 13:37:58;;;;;;;;;5.00;5.00;;;;;31.10;73.35;98254.66;6262789;27;97000;-63
2023/08/31 13:41:03;;;;;;;;;7.00;7.00;;;;;31.05;73.95;98258.56;6262288;27;96377;-65
2023/08/31 13:44:07;;;;;;;;;6.80;6.20;;;;;30.95;73.94;98253.56;6260858;27;97443;-64
2023/08/31 13:47:10;;;;;;;;;5.60;5.60;;;;;30.95;74.12;98256.34;6247097;27;98358;-64
2023/08/31 13:50:14;;;;;;;;;7.00;6.20;;;;;30.97;73.79;98259.59;6241575;27;96706;-64
2023/08/31 13:53:17;;;;;;;;;7.50;7.00;;;;;30.88;73.23;98262.63;6282731;27;96390;-63
2023/08/31 13:56:21;;;;;;;;;6.00;5.40;;;;;30.84;75.51;98270.06;6262292;27;96829;-64
2023/08/31 13:59:27;;;;;;;;;7.00;7.00;;;;;30.58;75.08;98271.97;6269519;27;97033;-63
2023/08/31 14:02:30;;;;;;;;;6.50;6.50;;;;;30.40;78.37;98272.38;6282419;27;97389;-63
2023/08/31 14:05:34;;;;;;;;;7.00;7.00;;;;;30.11;78.89;98273.78;6253096;27;96919;-63
2023/08/31 14:08:37;;;;;;;;;5.00;5.00;;;;;30.18;79.59;98269.56;6254605;27;98812;-63
2023/08/31 14:11:40;;;;;;;;;5.00;5.00;;;;;30.13;77.20;98274.25;6278161;27;96458;-64